Time;durP1;ratioP1;P1;durP2;ratioP2;P2;SDS_P1;SDS_P2;PMS_P1;PMS_P2;Temp;Humidity;BMP_temperature;BMP_pressure;BME280_temperature;BME280_humidity;BME280_pressure;Samples;Min_cycle;Max_cycle;Signal;HPM_P1;HPM_P2
2023/09/11 00:01:00;;;;;;;8.10;4.90;;;17.50;99.90;;;;;;2586084;54;20506;31
2023/09/11 00:03:39;;;;;;;7.30;5.20;;;17.50;99.90;;;;;;2585975;54;20030;31
2023/09/11 00:06:17;;;;;;;7.63;4.73;;;17.50;99.90;;;;;;2586323;54;20242;31
2023/09/11 00:08:53;;;;;;;7.57;4.50;;;17.50;99.90;;;;;;2586119;54;20957;31
2023/09/11 00:11:39;;;;;;;8.35;4.85;;;17.40;99.90;;;;;;2586186;54;20097;31
2023/09/11 00:14:14;;;;;;;8.87;4.80;;;17.40;99.90;;;;;;2604828;46;20727;31
2023/09/11 00:16:54;;;;;;;7.38;5.15;;;17.40;99.90;;;;;;2586455;54;20857;31
2023/09/11 00:19:40;;;;;;;8.70;4.90;;;17.30;99.90;;;;;;2586222;54;20834;31
2023/09/11 00:22:20;;;;;;;8.18;5.10;;;17.30;99.90;;;;;;2586176;54;20111;31
2023/09/11 00:24:56;;;;;;;7.00;4.97;;;17.20;99.90;;;;;;2586416;54;20033;31
2023/09/11 00:27:39;;;;;;;7.60;5.03;;;17.20;99.90;;;;;;2586426;54;21013;31
2023/09/11 00:30:16;;;;;;;6.38;4.72;;;17.10;99.90;;;;;;2586367;54;20085;31
2023/09/11 00:32:57;;;;;;;7.90;4.15;;;17.20;99.90;;;;;;2586387;54;20918;31
2023/09/11 00:35:34;;;;;;;7.28;4.25;;;17.10;99.90;;;;;;2586359;54;20843;31
2023/09/11 00:38:11;;;;;;;;;;;17.20;99.90;;;;;;2684166;39;20389;31
2023/09/11 00:40:52;;;;;;;8.40;4.53;;;17.10;99.90;;;;;;2604434;46;20013;31
2023/09/11 00:43:30;;;;;;;8.55;5.13;;;17.10;99.90;;;;;;2586108;54;20713;31
2023/09/11 00:46:07;;;;;;;8.60;4.65;;;17.10;99.90;;;;;;2588764;46;20514;31
2023/09/11 00:48:43;;;;;;;7.07;4.32;;;17.10;99.90;;;;;;2684314;39;21284;31
2023/09/11 00:51:15;;;;;;;;;;;17.10;99.90;;;;;;2585281;54;20539;31
2023/09/11 00:53:50;;;;;;;6.63;4.30;;;17.10;99.90;;;;;;2603890;46;19958;31
2023/09/11 00:56:35;;;;;;;7.40;4.40;;;17.00;99.90;;;;;;2773511;31;21619;31
2023/09/11 00:59:17;;;;;;;10.70;4.85;;;17.00;99.90;;;;;;2586318;54;20796;31
2023/09/11 01:01:51;;;;;;;6.68;4.70;;;17.00;99.90;;;;;;2585977;54;20033;31
2023/09/11 01:04:31;;;;;;;5.90;3.88;;;17.00;99.90;;;;;;2586112;54;20033;31
2023/09/11 01:07:17;;;;;;;11.43;5.23;;;17.00;99.90;;;;;;2585858;54;20028;31
2023/09/11 01:09:54;;;;;;;6.35;4.30;;;16.90;99.90;;;;;;2586100;54;21505;31
2023/09/11 01:12:35;;;;;;;6.80;4.63;;;16.90;99.90;;;;;;2586142;54;20030;31
2023/09/11 01:15:22;;;;;;;6.90;4.68;;;16.80;99.90;;;;;;2586110;54;20870;31
2023/09/11 01:18:07;;;;;;;6.72;3.72;;;16.80;99.90;;;;;;2586137;54;20810;31
2023/09/11 01:21:13;;;;;;;6.88;4.95;;;16.80;99.90;;;;;;2585982;54;20889;31
2023/09/11 01:24:14;;;;;;;5.32;3.60;;;16.70;99.90;;;;;;2702202;39;21514;31
2023/09/11 01:27:11;;;;;;;6.93;4.45;;;16.70;99.90;;;;;;2604113;46;20909;31
2023/09/11 01:29:53;;;;;;;8.73;5.05;;;16.70;99.90;;;;;;2684102;39;21479;31
2023/09/11 01:32:31;;;;;;;5.53;3.72;;;16.70;99.90;;;;;;2585224;54;20913;31
2023/09/11 01:35:09;;;;;;;5.75;4.10;;;16.70;99.90;;;;;;2585054;54;20876;31
2023/09/11 01:37:45;;;;;;;6.53;4.47;;;16.60;99.90;;;;;;2598475;46;20086;31
2023/09/11 01:40:21;;;;;;;6.07;4.43;;;16.60;99.90;;;;;;2754859;31;21592;31
2023/09/11 01:42:56;;;;;;;7.00;4.40;;;16.60;99.90;;;;;;2604559;46;20046;31
2023/09/11 01:45:57;;;;;;;6.15;4.28;;;16.50;99.90;;;;;;2604322;46;20026;31
2023/09/11 01:48:37;;;;;;;6.77;3.83;;;16.50;99.90;;;;;;2604778;46;20037;31
2023/09/11 01:51:17;;;;;;;6.95;3.80;;;16.50;99.90;;;;;;2604426;46;20253;31
2023/09/11 01:53:58;;;;;;;5.20;3.58;;;16.50;99.90;;;;;;2586275;54;20508;31
2023/09/11 01:56:41;;;;;;;7.22;3.83;;;16.50;99.90;;;;;;2604468;46;20523;31
2023/09/11 01:59:17;;;;;;;5.78;3.05;;;16.50;99.90;;;;;;2585954;54;21257;31
2023/09/11 02:02:00;;;;;;;6.85;3.97;;;16.40;99.90;;;;;;2585616;54;20027;31
2023/09/11 02:04:37;;;;;;;6.15;3.88;;;16.40;99.90;;;;;;2585899;54;20026;31
2023/09/11 02:07:17;;;;;;;6.05;3.75;;;16.40;99.90;;;;;;2586062;54;19993;31
2023/09/11 02:12:56;;;;;;;7.53;4.47;;;16.40;99.90;;;;;;2585885;54;20045;31
2023/09/11 02:15:37;;;;;;;5.63;3.53;;;16.30;99.90;;;;;;2585866;54;20077;31
2023/09/11 02:18:22;;;;;;;6.40;4.15;;;16.30;99.90;;;;;;2585805;54;20950;31
2023/09/11 02:21:01;;;;;;;6.77;3.60;;;16.20;99.90;;;;;;2585995;54;20955;31
2023/09/11 02:23:49;;;;;;;5.07;3.27;;;16.20;99.90;;;;;;2604504;46;20030;31
2023/09/11 02:26:26;;;;;;;5.68;3.83;;;16.10;99.90;;;;;;2604410;46;20101;31
2023/09/11 02:29:02;;;;;;;7.57;4.70;;;16.10;99.90;;;;;;2585870;54;21195;31
2023/09/11 02:31:44;;;;;;;5.78;4.10;;;16.10;99.90;;;;;;2585873;54;20953;31
2023/09/11 02:34:33;;;;;;;9.30;4.60;;;16.10;99.90;;;;;;2585929;54;20044;31
2023/09/11 02:37:11;;;;;;;8.07;4.95;;;16.00;99.90;;;;;;2585456;54;20846;31
2023/09/11 02:39:53;;;;;;;11.10;4.50;;;16.00;99.90;;;;;;2585739;54;20045;31
2023/09/11 02:42:30;;;;;;;7.82;5.40;;;15.90;99.90;;;;;;2586028;54;20789;31
2023/09/11 02:45:16;;;;;;;7.35;4.55;;;15.90;99.90;;;;;;2585895;54;20945;31
2023/09/11 02:47:54;;;;;;;7.85;5.18;;;15.90;99.90;;;;;;2585659;54;20031;31
2023/09/11 02:50:36;;;;;;;8.00;4.95;;;15.90;99.90;;;;;;2702357;39;20432;31
2023/09/11 02:53:17;;;;;;;7.38;4.95;;;15.80;99.90;;;;;;2585836;54;20899;31
2023/09/11 02:55:56;;;;;;;7.15;4.10;;;15.80;99.90;;;;;;2585911;54;20566;31
2023/09/11 02:58:34;;;;;;;6.53;4.70;;;15.80;99.90;;;;;;2585407;54;20895;31
2023/09/11 03:01:18;;;;;;;6.20;3.75;;;15.80;99.90;;;;;;2604843;47;20022;31
2023/09/11 03:03:53;;;;;;;6.07;3.50;;;15.80;99.90;;;;;;2585338;54;19994;31
2023/09/11 03:06:49;;;;;;;7.20;4.90;;;15.80;99.90;;;;;;2585770;54;20238;31
2023/09/11 03:09:30;;;;;;;6.38;4.47;;;15.70;99.90;;;;;;2586050;54;20876;31
2023/09/11 03:12:05;;;;;;;6.80;4.70;;;15.70;99.90;;;;;;2585395;54;20033;31
2023/09/11 03:14:47;;;;;;;6.73;3.37;;;15.70;99.90;;;;;;2604160;47;20106;31
2023/09/11 03:17:25;;;;;;;6.75;4.45;;;15.70;99.90;;;;;;2604439;46;20274;31
2023/09/11 03:20:05;;;;;;;6.97;5.22;;;15.70;99.90;;;;;;2586553;54;20022;31
2023/09/11 03:22:44;;;;;;;5.75;4.30;;;15.70;99.90;;;;;;2605130;46;20026;31
2023/09/11 03:28:21;;;;;;;9.48;5.07;;;15.60;99.90;;;;;;2586529;54;20261;31
2023/09/11 03:31:00;;;;;;;;;;;15.60;99.90;;;;;;2586661;54;20033;31
2023/09/11 03:33:56;;;;;;;6.40;4.40;;;15.60;99.90;;;;;;2586566;54;19941;31
2023/09/11 03:36:33;;;;;;;7.20;5.20;;;15.50;99.90;;;;;;2585575;54;20967;31
2023/09/11 03:42:21;;;;;;;8.82;5.35;;;15.50;99.90;;;;;;2604887;46;20128;31
2023/09/11 03:45:16;;;;;;;7.00;4.93;;;15.50;99.90;;;;;;2586470;54;20732;31
2023/09/11 03:48:01;;;;;;;7.70;5.10;;;15.50;99.90;;;;;;2586692;54;20920;31
2023/09/11 03:50:47;;;;;;;6.00;4.60;;;15.50;99.90;;;;;;2586739;54;20937;31
2023/09/11 03:53:33;;;;;;;8.40;5.90;;;15.50;99.90;;;;;;2585630;54;21109;31
2023/09/11 03:56:25;;;;;;;8.40;5.70;;;15.40;99.90;;;;;;2596239;46;20038;31
2023/09/11 03:59:15;;;;;;;7.25;4.47;;;15.40;99.90;;;;;;2586664;54;20866;31
2023/09/11 04:01:53;;;;;;;7.70;5.00;;;15.40;99.90;;;;;;2605069;46;20038;31
2023/09/11 04:04:29;;;;;;;9.15;6.50;;;15.50;99.90;;;;;;2586006;54;20316;31
2023/09/11 04:07:08;;;;;;;10.52;6.35;;;15.40;99.90;;;;;;2586292;54;20062;31
2023/09/11 04:10:02;;;;;;;10.57;5.72;;;15.40;99.90;;;;;;2586698;54;20908;31
2023/09/11 04:12:50;;;;;;;7.00;5.20;;;15.40;99.90;;;;;;2586405;54;20030;31
2023/09/11 04:15:32;;;;;;;7.70;4.82;;;15.40;99.90;;;;;;2586166;54;20042;31
2023/09/11 04:18:21;;;;;;;7.80;5.17;;;15.40;99.90;;;;;;2604794;46;20034;31
2023/09/11 04:21:09;;;;;;;7.80;4.95;;;15.30;99.90;;;;;;2586091;54;20026;31
2023/09/11 04:24:10;;;;;;;9.50;5.38;;;15.30;99.90;;;;;;2586600;54;20940;31
2023/09/11 04:26:50;;;;;;;8.93;5.45;;;15.30;99.90;;;;;;2586029;54;20885;31
2023/09/11 04:29:38;;;;;;;6.47;3.87;;;15.30;99.90;;;;;;2586412;54;20029;31
2023/09/11 04:32:14;;;;;;;8.30;5.30;;;15.30;99.90;;;;;;2586158;54;20247;31
2023/09/11 04:34:57;;;;;;;9.02;5.50;;;15.30;99.90;;;;;;2586238;54;20158;31
2023/09/11 04:40:56;;;;;;;6.53;3.80;;;15.30;99.90;;;;;;2586213;54;20849;31
2023/09/11 04:47:08;;;;;;;6.00;4.50;;;15.30;99.90;;;;;;2586080;54;20054;31
2023/09/11 04:49:50;;;;;;;10.63;6.07;;;15.30;99.90;;;;;;2604996;46;20046;31
2023/09/11 04:58:58;;;;;;;8.40;5.40;;;15.40;99.90;;;;;;2591770;46;20047;31
2023/09/11 05:01:50;;;;;;;12.23;6.28;;;15.50;99.90;;;;;;2683763;39;21357;31
2023/09/11 05:05:06;;;;;;;10.63;6.07;;;15.50;99.90;;;;;;2585899;54;20868;31
2023/09/11 05:07:58;;;;;;;11.10;6.40;;;15.50;99.90;;;;;;2586181;54;20779;31
2023/09/11 05:10:44;;;;;;;10.37;7.10;;;15.50;99.90;;;;;;2587023;54;20050;31
2023/09/11 05:13:38;;;;;;;9.00;6.00;;;15.60;99.90;;;;;;2586740;54;20827;31
2023/09/11 05:19:34;;;;;;;7.60;5.53;;;15.70;99.90;;;;;;2584708;54;20097;31
2023/09/11 05:25:45;;;;;;;12.00;7.60;;;15.80;99.90;;;;;;2586165;54;21002;31
2023/09/11 05:28:32;;;;;;;8.95;6.65;;;15.90;99.90;;;;;;2604532;46;20246;31
2023/09/11 05:31:08;;;;;;;10.60;6.50;;;16.00;99.90;;;;;;2586035;54;20889;31
2023/09/11 05:33:44;;;;;;;9.70;7.05;;;16.00;99.90;;;;;;2603773;46;20947;31
2023/09/11 05:36:27;;;;;;;11.68;7.15;;;16.10;99.90;;;;;;2586058;54;20047;31
2023/09/11 05:39:08;;;;;;;10.45;7.07;;;16.30;99.90;;;;;;2603936;47;20777;31
2023/09/11 05:41:55;;;;;;;10.85;7.40;;;16.40;99.90;;;;;;2682159;39;20553;31
2023/09/11 05:44:34;;;;;;;9.13;6.65;;;16.50;99.90;;;;;;2585958;54;20862;31
2023/09/11 05:47:22;;;;;;;10.35;6.90;;;16.80;99.90;;;;;;2586795;54;20042;31
2023/09/11 05:50:02;;;;;;;8.85;6.53;;;17.10;99.90;;;;;;2585239;54;20799;31
2023/09/11 05:52:43;;;;;;;9.90;6.35;;;17.50;99.90;;;;;;2590217;46;20019;31
2023/09/11 05:55:27;;;;;;;9.67;6.23;;;17.90;99.90;;;;;;2586057;54;20797;31
2023/09/11 05:58:02;;;;;;;10.32;6.85;;;18.50;99.90;;;;;;2586047;54;20873;31
2023/09/11 06:00:48;;;;;;;9.40;6.82;;;18.90;99.90;;;;;;2603575;46;20033;31
2023/09/11 06:03:31;;;;;;;9.10;6.30;;;19.30;99.90;;;;;;2683612;39;21344;31
2023/09/11 06:06:19;;;;;;;9.05;6.53;;;19.70;99.90;;;;;;2585803;54;20242;31
2023/09/11 06:08:57;;;;;;;10.95;7.38;;;20.10;99.90;;;;;;2585963;54;20092;31
2023/09/11 06:11:33;;;;;;;;;;;20.50;99.90;;;;;;2604808;46;20759;31
2023/09/11 06:14:11;;;;;;;11.20;7.68;;;20.70;99.90;;;;;;2683491;39;21479;31
2023/09/11 06:16:47;;;;;;;8.50;6.50;;;21.00;99.90;;;;;;2585898;54;20027;31
2023/09/11 06:19:26;;;;;;;8.68;6.55;;;21.30;99.90;;;;;;2585926;54;20782;31
2023/09/11 06:22:03;;;;;;;10.18;7.00;;;21.50;99.90;;;;;;2586154;54;20755;31
2023/09/11 06:24:44;;;;;;;12.40;6.80;;;21.70;99.90;;;;;;2585127;54;20019;31
2023/09/11 06:27:27;;;;;;;11.57;6.55;;;22.00;99.90;;;;;;2604629;46;20860;31
2023/09/11 06:33:02;;;;;;;10.90;7.20;;;22.40;99.90;;;;;;2585699;54;20531;31
2023/09/11 06:35:42;;;;;;;10.95;7.50;;;22.80;99.90;;;;;;2585882;54;21617;31
2023/09/11 06:38:19;;;;;;;12.55;7.80;;;22.90;99.90;;;;;;2586007;54;20037;31
2023/09/11 06:41:03;;;;;;;12.45;7.38;;;23.10;99.90;;;;;;2584928;54;20902;31
2023/09/11 06:43:46;;;;;;;12.35;7.38;;;23.30;99.90;;;;;;2585881;54;20789;31
2023/09/11 06:46:24;;;;;;;12.80;7.90;;;23.60;99.90;;;;;;2585979;54;20754;31
2023/09/11 06:49:03;;;;;;;11.15;7.82;;;23.90;99.90;;;;;;2585149;54;20033;31
2023/09/11 06:51:39;;;;;;;11.75;7.85;;;24.20;99.90;;;;;;2585364;54;20038;31
2023/09/11 06:54:16;;;;;;;10.93;7.18;;;24.40;99.90;;;;;;2585525;54;20935;31
2023/09/11 06:57:01;;;;;;;10.45;6.95;;;24.80;99.90;;;;;;2585929;54;20567;31
2023/09/11 06:59:46;;;;;;;13.50;7.35;;;25.00;99.90;;;;;;2701834;39;21562;31
2023/09/11 07:02:26;;;;;;;10.07;7.22;;;25.20;99.90;;;;;;2585833;54;20117;31
2023/09/11 07:05:04;;;;;;;14.07;7.63;;;25.60;99.90;;;;;;2586252;47;20826;31
2023/09/11 07:08:15;;;;;;;12.07;7.37;;;25.70;99.90;;;;;;2585725;54;20242;31
2023/09/11 07:11:01;;;;;;;10.35;7.60;;;26.00;99.90;;;;;;2585347;54;20619;31
2023/09/11 07:13:43;;;;;;;11.57;7.47;;;26.20;99.90;;;;;;2585527;54;20022;31
2023/09/11 07:16:23;;;;;;;13.05;7.00;;;26.40;99.90;;;;;;2585888;54;20239;31
2023/09/11 07:25:26;;;;;;;13.20;7.75;;;27.10;99.90;;;;;;2683757;39;21481;31
2023/09/11 07:28:26;;;;;;;12.05;7.50;;;27.40;99.90;;;;;;2683859;39;21539;31
2023/09/11 07:31:04;;;;;;;12.40;7.18;;;27.50;99.90;;;;;;2584914;54;20782;31
2023/09/11 07:33:43;;;;;;;9.85;6.80;;;27.60;99.90;;;;;;2682829;39;21527;31
2023/09/11 07:42:31;;;;;;;7.80;5.68;;;28.10;99.90;;;;;;2604344;47;20031;31
2023/09/11 07:45:19;;;;;;;11.00;6.95;;;28.40;99.90;;;;;;2585720;54;21272;31
2023/09/11 07:48:15;;;;;;;11.52;6.10;;;28.50;99.90;;;;;;2585466;54;20028;31
2023/09/11 07:50:51;;;;;;;8.30;5.65;;;28.80;99.90;;;;;;2585627;54;21176;31
2023/09/11 07:53:35;;;;;;;8.37;5.73;;;29.00;99.90;;;;;;2585852;54;20031;31
2023/09/11 08:03:12;;;;;;;7.13;5.03;;;29.50;99.90;;;;;;2585455;54;20762;31
2023/09/11 08:16:02;;;;;;;4.75;4.25;;;30.00;99.90;;;;;;2586335;54;20023;31
2023/09/11 08:19:04;;;;;;;5.97;4.60;;;30.10;99.90;;;;;;2586398;54;20026;31
2023/09/11 08:27:45;;;;;;;6.20;4.60;;;30.50;99.90;;;;;;2587860;46;20053;31
2023/09/11 08:30:28;;;;;;;6.85;5.28;;;30.60;99.90;;;;;;2684319;39;20428;31
2023/09/11 08:33:06;;;;;;;6.60;4.50;;;30.80;99.90;;;;;;2585652;54;20026;31
2023/09/11 08:35:52;;;;;;;7.13;4.27;;;30.80;99.90;;;;;;2586460;54;19946;31
2023/09/11 08:41:13;;;;;;;6.03;4.38;;;31.10;99.90;;;;;;2683557;39;20416;31
2023/09/11 08:43:54;;;;;;;6.47;4.83;;;31.30;99.90;;;;;;2604511;46;20038;31
2023/09/11 08:46:36;;;;;;;6.82;4.07;;;31.30;99.90;;;;;;2585443;54;20089;31
2023/09/11 08:49:15;;;;;;;7.40;4.70;;;31.30;99.90;;;;;;2605090;46;20863;31
2023/09/11 08:51:55;;;;;;;8.73;4.67;;;31.50;99.90;;;;;;2586118;54;20030;31
2023/09/11 08:54:38;;;;;;;6.18;4.78;;;31.60;99.90;;;;;;2586689;54;21338;31
2023/09/11 08:57:12;;;;;;;6.17;4.27;;;31.60;99.90;;;;;;2604589;46;20037;31
2023/09/11 08:59:59;;;;;;;7.65;4.75;;;31.60;99.90;;;;;;2585659;54;21149;31
2023/09/11 09:09:18;;;;;;;6.80;4.40;;;32.00;99.90;;;;;;2603320;46;20038;31
2023/09/11 09:12:17;;;;;;;6.23;4.27;;;32.10;99.90;;;;;;2584755;54;20041;31
2023/09/11 09:18:28;;;;;;;5.60;4.35;;;32.30;99.90;;;;;;2586261;54;20793;31
2023/09/11 09:21:27;;;;;;;5.75;4.20;;;32.30;99.90;;;;;;2684359;39;20432;31
2023/09/11 09:30:15;;;;;;;5.90;4.95;;;32.40;99.90;;;;;;2586514;54;20129;31
2023/09/11 09:46:11;;;;;;;5.03;4.30;;;32.70;96.90;;;;;;2604997;46;20022;31
2023/09/11 09:48:46;;;;;;;4.70;4.20;;;32.80;97.00;;;;;;2586270;54;20913;31
2023/09/11 09:51:28;;;;;;;5.65;4.03;;;32.80;98.00;;;;;;2585894;54;20871;31
2023/09/11 09:54:49;;;;;;;5.75;4.35;;;32.80;96.20;;;;;;2585936;54;20033;31
2023/09/11 10:00:57;;;;;;;5.20;4.37;;;33.00;95.20;;;;;;2586017;54;20034;31
2023/09/11 10:03:45;;;;;;;6.05;3.92;;;32.90;96.50;;;;;;2586122;54;21176;31
2023/09/11 10:12:32;;;;;;;5.65;4.40;;;33.00;95.50;;;;;;2586097;54;20085;31
2023/09/11 10:24:58;;;;;;;4.90;3.60;;;33.00;93.60;;;;;;2585799;54;21012;31
2023/09/11 10:30:40;;;;;;;5.22;4.25;;;33.00;92.00;;;;;;2585943;54;20027;31
2023/09/11 10:33:27;;;;;;;5.75;4.40;;;33.00;94.50;;;;;;2586310;54;20037;31
2023/09/11 10:36:10;;;;;;;5.73;4.57;;;33.00;92.80;;;;;;2585820;54;20022;31
2023/09/11 10:39:18;;;;;;;5.10;3.70;;;33.10;94.20;;;;;;2604605;46;20057;31
2023/09/11 10:45:36;;;;;;;4.75;4.10;;;33.00;92.90;;;;;;2585639;54;20800;31
2023/09/11 10:51:34;;;;;;;6.00;4.45;;;32.90;92.30;;;;;;2585966;54;20033;31
2023/09/11 10:54:41;;;;;;;5.35;4.00;;;32.90;92.30;;;;;;2585176;54;20102;31
2023/09/11 10:57:46;;;;;;;5.45;3.40;;;32.90;91.40;;;;;;2592050;46;20871;31
2023/09/11 11:00:27;;;;;;;5.90;4.25;;;32.90;91.00;;;;;;2593167;46;21174;31
2023/09/11 11:06:12;;;;;;;3.75;3.13;;;32.90;91.40;;;;;;2632220;54;20002;-95
2023/09/11 11:08:57;;;;;;;4.97;3.08;;;32.90;91.20;;;;;;2608778;47;20325;31
2023/09/11 12:09:58;;;;;;;5.93;3.67;;;31.90;89.20;;;;;;2586313;54;19927;31
2023/09/11 12:12:58;;;;;;;4.30;3.65;;;31.90;87.60;;;;;;2586320;54;20038;31
2023/09/11 12:19:04;;;;;;;;;;;;;;;;;;;;;
2023/09/11 12:32:03;;;;;;;;;;;;;;;;;;;;;
2023/09/11 12:55:35;;;;;;;4.45;3.40;;;30.60;91.40;;;;;;2586559;54;21014;31
2023/09/11 13:17:04;;;;;;;4.83;3.33;;;30.50;90.90;;;;;;2603881;46;20053;31
2023/09/11 13:19:59;;;;;;;6.13;3.67;;;30.50;91.20;;;;;;2586300;54;20238;31
2023/09/11 13:23:03;;;;;;;5.20;3.70;;;30.40;90.30;;;;;;2586183;54;21235;31
2023/09/11 13:31:40;;;;;;;3.80;3.40;;;30.40;91.70;;;;;;2631117;54;20014;-90
2023/09/11 13:34:13;;;;;;;3.90;3.50;;;30.30;91.60;;;;;;2586190;54;20022;31
2023/09/11 13:36:53;;;;;;;4.57;3.83;;;30.30;91.40;;;;;;2586131;54;20023;31
2023/09/11 13:39:26;;;;;;;4.53;3.47;;;30.30;93.30;;;;;;2586125;54;20030;31
2023/09/11 13:41:59;;;;;;;4.40;3.85;;;30.20;92.50;;;;;;2586341;54;20933;31
2023/09/11 13:44:32;;;;;;;4.50;3.95;;;30.20;92.30;;;;;;2585765;54;20038;31
2023/09/11 13:47:05;;;;;;;5.95;4.45;;;30.20;91.90;;;;;;2604228;46;20871;31
2023/09/11 13:49:40;;;;;;;4.35;3.60;;;30.20;92.40;;;;;;2585900;54;20037;31
2023/09/11 13:52:18;;;;;;;4.90;3.55;;;30.20;92.30;;;;;;2586043;54;20027;31
2023/09/11 13:54:57;;;;;;;4.70;3.58;;;30.20;93.10;;;;;;2586140;54;20112;31
2023/09/11 13:57:33;;;;;;;4.20;3.45;;;30.10;92.40;;;;;;2585360;54;20504;31
2023/09/11 14:00:08;;;;;;;4.35;2.90;;;30.10;91.90;;;;;;2684033;39;21314;31
2023/09/11 14:02:46;;;;;;;5.97;3.72;;;30.10;91.60;;;;;;2586263;54;20926;31
2023/09/11 14:05:32;;;;;;;4.55;3.55;;;30.10;91.90;;;;;;2585978;54;20032;31
2023/09/11 14:08:21;;;;;;;5.70;4.25;;;30.10;92.40;;;;;;2585953;54;20042;31
2023/09/11 14:10:55;;;;;;;4.30;3.70;;;30.00;93.10;;;;;;2586112;54;20142;31
2023/09/11 14:13:30;;;;;;;5.50;3.75;;;30.00;92.90;;;;;;2585922;54;20030;31
2023/09/11 14:16:03;;;;;;;5.38;4.20;;;30.00;92.70;;;;;;2586099;54;21005;31
2023/09/11 14:18:36;;;;;;;4.60;3.30;;;30.00;92.40;;;;;;2604196;46;20909;31
2023/09/11 14:21:11;;;;;;;8.63;3.90;;;29.90;91.80;;;;;;2585247;54;20038;31
2023/09/11 14:23:50;;;;;;;4.67;3.83;;;29.90;93.40;;;;;;2586079;54;20771;31
2023/09/11 14:26:24;;;;;;;4.00;3.30;;;29.80;92.10;;;;;;2604704;46;20124;31
2023/09/11 14:28:57;;;;;;;4.75;3.45;;;29.80;91.50;;;;;;2604414;46;20097;31
2023/09/11 14:31:29;;;;;;;5.40;3.80;;;29.80;93.10;;;;;;2585689;54;20811;31
2023/09/11 14:34:04;;;;;;;4.38;3.55;;;29.70;92.70;;;;;;2585901;54;20038;31
2023/09/11 14:36:38;;;;;;;6.00;4.25;;;29.70;91.90;;;;;;2586096;54;20761;31
2023/09/11 14:39:16;;;;;;;4.72;3.60;;;29.70;92.20;;;;;;2604289;46;20037;31
2023/09/11 14:41:55;;;;;;;4.65;4.10;;;29.70;92.70;;;;;;2586006;54;20883;31
2023/09/11 14:44:32;;;;;;;5.07;3.25;;;29.60;92.90;;;;;;2585959;54;20030;31
2023/09/11 14:47:21;;;;;;;3.83;3.33;;;29.60;92.40;;;;;;2585914;54;20065;31
2023/09/11 14:50:09;;;;;;;4.88;3.90;;;29.60;92.90;;;;;;2604701;46;21032;31
2023/09/11 14:52:42;;;;;;;4.68;3.25;;;29.50;92.70;;;;;;2585659;54;20830;31
2023/09/11 14:55:21;;;;;;;4.45;3.55;;;29.50;91.30;;;;;;2585953;54;20867;31
2023/09/11 14:57:54;;;;;;;5.17;3.07;;;29.40;92.30;;;;;;2586055;54;19935;31
2023/09/11 15:00:30;;;;;;;5.28;2.95;;;29.40;92.60;;;;;;2585841;54;20026;31
2023/09/11 15:03:02;;;;;;;4.82;3.65;;;29.30;91.90;;;;;;2585736;54;20835;31
2023/09/11 15:05:36;;;;;;;5.95;3.13;;;29.30;91.40;;;;;;2585954;54;20761;31
2023/09/11 15:08:11;;;;;;;4.35;2.90;;;29.30;91.90;;;;;;2585921;54;20880;31
2023/09/11 15:10:47;;;;;;;;;;;29.20;92.80;;;;;;2604248;47;20037;31
2023/09/11 15:13:20;;;;;;;6.03;3.30;;;29.20;91.10;;;;;;2586395;54;20744;31
2023/09/11 15:16:04;;;;;;;4.25;2.80;;;29.20;92.00;;;;;;2586848;54;20800;31
2023/09/11 15:18:49;;;;;;;3.10;2.57;;;29.10;91.90;;;;;;2605012;46;20064;31
2023/09/11 15:21:33;;;;;;;4.40;3.58;;;29.10;91.80;;;;;;2586363;54;20944;31
2023/09/11 15:24:13;;;;;;;5.25;3.00;;;29.10;91.50;;;;;;2604985;46;20034;31
2023/09/11 15:26:54;;;;;;;4.00;3.20;;;29.10;92.00;;;;;;2586809;54;20235;31
2023/09/11 15:29:33;;;;;;;3.60;2.93;;;29.10;91.20;;;;;;2586488;54;20037;31
2023/09/11 15:32:06;;;;;;;5.13;2.70;;;29.10;92.10;;;;;;2586516;54;20888;31
2023/09/11 15:34:44;;;;;;;4.30;3.17;;;29.10;92.90;;;;;;2586575;54;20057;31
2023/09/11 15:37:18;;;;;;;4.30;3.35;;;29.00;91.90;;;;;;2586539;54;20031;31
2023/09/11 15:39:54;;;;;;;4.23;3.53;;;29.00;92.00;;;;;;2586720;54;20941;31
2023/09/11 15:42:30;;;;;;;7.27;3.67;;;28.90;91.30;;;;;;2586856;54;20867;31
2023/09/11 15:45:04;;;;;;;5.22;3.55;;;28.90;91.80;;;;;;2586631;54;20057;31
2023/09/11 15:47:39;;;;;;;6.88;3.50;;;28.80;90.80;;;;;;2586439;54;20031;31
2023/09/11 15:50:14;;;;;;;5.00;3.50;;;28.80;91.50;;;;;;2586370;54;20031;31
2023/09/11 15:52:47;;;;;;;3.10;2.65;;;28.70;91.60;;;;;;2586548;54;20941;31
2023/09/11 15:55:20;;;;;;;3.73;2.97;;;28.70;92.20;;;;;;2604909;46;20941;31
2023/09/11 15:57:56;;;;;;;4.60;3.50;;;28.70;91.90;;;;;;2586436;54;20294;31
2023/09/11 16:00:40;;;;;;;5.35;3.90;;;28.70;92.10;;;;;;2586405;54;20736;31
2023/09/11 16:03:31;;;;;;;5.00;3.60;;;28.60;92.50;;;;;;2604806;46;20956;31
2023/09/11 16:06:12;;;;;;;9.60;4.43;;;28.60;92.80;;;;;;2586755;54;20254;31
2023/09/11 16:08:51;;;;;;;10.20;3.90;;;28.50;93.20;;;;;;2586262;54;20246;31
2023/09/11 16:11:25;;;;;;;5.45;3.70;;;28.50;92.70;;;;;;2594335;46;20782;31
2023/09/11 16:14:00;;;;;;;5.40;3.60;;;28.40;92.50;;;;;;2586437;54;20097;31
2023/09/11 16:16:39;;;;;;;7.17;3.73;;;28.40;92.60;;;;;;2604953;46;21289;31
2023/09/11 16:19:36;;;;;;;6.80;3.63;;;28.40;91.70;;;;;;2586449;54;20026;31
2023/09/11 16:22:40;;;;;;;5.15;3.20;;;28.30;92.30;;;;;;2586212;54;20858;31
2023/09/11 16:25:14;;;;;;;5.37;3.60;;;28.20;92.50;;;;;;2596045;46;20255;31
2023/09/11 16:27:47;;;;;;;6.27;2.83;;;28.20;93.80;;;;;;2605122;46;20886;31
2023/09/11 16:30:23;;;;;;;4.72;3.67;;;28.10;94.00;;;;;;2604965;46;20905;31
2023/09/11 16:33:02;;;;;;;4.57;3.67;;;28.00;96.10;;;;;;2586691;54;20038;31
2023/09/11 16:35:35;;;;;;;3.47;2.97;;;27.90;96.70;;;;;;2586397;54;20887;31
2023/09/11 16:38:08;;;;;;;6.57;4.00;;;27.80;98.30;;;;;;2604708;46;20077;31
2023/09/11 16:40:43;;;;;;;5.30;3.95;;;27.80;97.70;;;;;;2604936;46;20034;31
2023/09/11 16:43:18;;;;;;;6.28;3.47;;;27.80;98.50;;;;;;2586607;54;20882;31
2023/09/11 16:45:54;;;;;;;7.38;3.45;;;27.60;99.70;;;;;;2586761;54;20112;31
2023/09/11 16:48:30;;;;;;;5.30;4.10;;;27.50;99.90;;;;;;2586242;54;20038;31
2023/09/11 16:51:02;;;;;;;6.03;3.90;;;27.40;99.90;;;;;;2586395;54;20748;31
2023/09/11 16:53:35;;;;;;;8.60;4.53;;;27.30;99.90;;;;;;2586208;54;20030;31
2023/09/11 16:56:10;;;;;;;6.20;4.10;;;27.20;99.90;;;;;;2584546;54;20025;31
2023/09/11 16:58:49;;;;;;;6.33;3.67;;;27.10;99.90;;;;;;2603955;46;20619;31
2023/09/11 17:01:29;;;;;;;7.70;4.00;;;27.00;99.90;;;;;;2600618;46;21578;31
2023/09/11 17:04:03;;;;;;;5.27;4.00;;;26.90;99.90;;;;;;2586171;54;20073;31
2023/09/11 17:06:35;;;;;;;5.45;3.97;;;26.80;99.90;;;;;;2585950;54;20042;31
2023/09/11 17:09:08;;;;;;;7.85;4.20;;;26.60;99.90;;;;;;2586231;54;20732;31
2023/09/11 17:11:42;;;;;;;8.90;4.80;;;26.50;99.90;;;;;;2586190;54;20081;31
2023/09/11 17:14:16;;;;;;;7.75;4.05;;;26.40;99.90;;;;;;2586351;54;20033;31
2023/09/11 17:16:52;;;;;;;8.73;5.10;;;26.20;99.90;;;;;;2586513;54;20033;31
2023/09/11 17:19:30;;;;;;;9.27;4.25;;;26.10;99.90;;;;;;2586355;54;20745;31
2023/09/11 17:22:04;;;;;;;6.60;3.85;;;26.00;99.90;;;;;;2586376;54;20767;31
2023/09/11 17:24:39;;;;;;;5.45;4.05;;;25.90;99.90;;;;;;2603493;46;20105;31
2023/09/11 17:27:12;;;;;;;6.00;3.80;;;25.80;99.90;;;;;;2586217;54;20030;31
2023/09/11 17:29:45;;;;;;;7.35;4.47;;;25.80;99.90;;;;;;2603700;46;19943;31
2023/09/11 17:32:21;;;;;;;7.82;4.75;;;25.70;99.90;;;;;;2585943;54;20029;31
2023/09/11 17:34:55;;;;;;;5.35;4.20;;;25.60;99.90;;;;;;2585957;54;21025;31
2023/09/11 17:37:28;;;;;;;8.68;4.00;;;25.50;99.90;;;;;;2604517;46;20033;31
2023/09/11 17:40:00;;;;;;;8.68;4.35;;;25.40;99.90;;;;;;2605019;46;20030;31
2023/09/11 17:42:33;;;;;;;6.20;4.07;;;25.30;99.90;;;;;;2586078;54;20036;31
2023/09/11 17:45:08;;;;;;;7.28;3.83;;;25.20;99.90;;;;;;2586052;54;20023;31
2023/09/11 17:47:46;;;;;;;5.77;4.47;;;25.10;99.90;;;;;;2586045;54;20109;31
2023/09/11 17:50:18;;;;;;;7.10;4.80;;;25.10;99.90;;;;;;2586050;54;21063;31
2023/09/11 17:52:51;;;;;;;5.65;4.22;;;25.00;99.90;;;;;;2586263;54;20027;31
2023/09/11 17:55:23;;;;;;;14.60;4.85;;;24.90;99.90;;;;;;2586219;54;20749;31
2023/09/11 17:57:56;;;;;;;20.30;5.30;;;24.80;99.90;;;;;;2585985;54;20884;31
2023/09/11 18:00:29;;;;;;;25.40;5.10;;;24.70;99.90;;;;;;2604662;46;20022;31
2023/09/11 18:03:08;;;;;;;9.57;4.10;;;24.60;99.90;;;;;;2586077;54;20026;31
2023/09/11 18:05:41;;;;;;;6.53;4.22;;;24.50;99.90;;;;;;2586117;54;20043;31
2023/09/11 18:08:29;;;;;;;12.45;4.90;;;24.40;99.90;;;;;;2585824;54;20026;31
2023/09/11 18:11:08;;;;;;;12.98;4.65;;;24.30;99.90;;;;;;2590448;46;20949;31
2023/09/11 18:14:08;;;;;;;14.50;4.95;;;24.20;99.90;;;;;;2586393;54;20033;31
2023/09/11 18:17:07;;;;;;;9.37;4.20;;;24.10;99.90;;;;;;2586092;54;20871;31
2023/09/11 18:19:48;;;;;;;;;;;24.00;99.90;;;;;;2586082;54;20037;31
2023/09/11 18:22:38;;;;;;;10.60;4.55;;;23.90;99.90;;;;;;2585531;54;19939;31